createdAt,value
2019-05-15T00:00:39.796Z,102468.06
2019-05-15T00:01:45.358Z,102471.27
2019-05-15T00:02:50.754Z,102470.04
2019-05-15T00:03:58.457Z,102467.45
2019-05-15T00:05:04.481Z,102464.03
2019-05-15T00:06:10.248Z,102472.38
2019-05-15T00:07:15.214Z,102469.83
2019-05-15T00:08:20.762Z,102473.81
2019-05-15T00:09:25.692Z,102464.58
2019-05-15T00:10:31.255Z,102472.56
2019-05-15T00:11:38.777Z,102471.80
2019-05-15T00:12:43.870Z,102471.98
2019-05-15T00:13:49.093Z,102477.87
2019-05-15T00:14:54.660Z,102470.91
2019-05-15T00:15:59.899Z,102470.04
2019-05-15T00:17:05.442Z,102478.13
2019-05-15T00:18:10.393Z,102477.26
2019-05-15T00:19:18.603Z,102475.17
2019-05-15T00:20:23.550Z,102476.11
2019-05-15T00:21:29.444Z,102469.06
2019-05-15T00:22:34.367Z,102470.50
2019-05-15T00:23:42.052Z,102466.52
2019-05-15T00:24:48.848Z,102473.23
2019-05-15T00:25:54.210Z,102467.91
2019-05-15T00:26:59.486Z,102469.25
2019-05-15T00:28:05.139Z,102470.58
2019-05-15T00:29:15.846Z,102467.55
2019-05-15T00:30:18.369Z,102471.05
2019-05-15T00:31:23.393Z,102476.47
2019-05-15T00:32:29.475Z,102472.55
2019-05-15T00:33:34.745Z,102465.61
2019-05-15T00:34:40.233Z,102463.53
2019-05-15T00:35:45.294Z,102466.72
2019-05-15T00:36:50.773Z,102463.70
2019-05-15T00:37:55.738Z,102465.03
2019-05-15T00:39:01.209Z,102463.77
2019-05-15T00:40:08.831Z,102463.30
2019-05-15T00:41:14.232Z,102457.13
2019-05-15T00:42:19.572Z,102458.92
2019-05-15T00:43:25.126Z,102457.13
2019-05-15T00:44:30.046Z,102454.00
2019-05-15T00:45:38.295Z,102460.65
2019-05-15T00:46:42.563Z,102456.66
2019-05-15T00:47:48.653Z,102456.66
2019-05-15T00:48:54.242Z,102454.47
2019-05-15T00:50:00.031Z,102461.98
2019-05-15T00:51:05.339Z,102453.61
2019-05-15T00:52:12.241Z,102453.61
2019-05-15T00:53:19.564Z,102457.99
2019-05-15T00:54:25.600Z,102454.87
2019-05-15T00:55:30.907Z,102455.33
2019-05-15T00:56:36.412Z,102453.61
2019-05-15T00:57:41.354Z,102456.27
2019-05-15T00:58:48.814Z,102450.66
2019-05-15T00:59:54.067Z,102445.92
2019-05-15T01:00:59.612Z,102446.92
2019-05-15T01:02:04.579Z,102440.85
2019-05-15T01:03:10.184Z,102445.41
2019-05-15T01:04:15.393Z,102445.48
2019-05-15T01:05:20.962Z,102448.31
2019-05-15T01:06:28.301Z,102444.03
2019-05-15T01:07:33.557Z,102447.16
2019-05-15T01:08:39.442Z,102445.53
2019-05-15T01:09:45.262Z,102447.33
2019-05-15T01:10:50.821Z,102445.25
2019-05-15T01:11:58.585Z,102445.31
2019-05-15T01:13:03.501Z,102442.66
2019-05-15T01:14:12.227Z,102443.59
2019-05-15T01:15:18.308Z,102440.08
2019-05-15T01:16:23.341Z,102438.28
2019-05-15T01:17:29.069Z,102432.97
2019-05-15T01:18:34.604Z,102436.59
2019-05-15T01:19:39.628Z,102430.30
2019-05-15T01:20:45.359Z,102426.32
2019-05-15T01:21:50.291Z,102422.34
2019-05-15T01:22:55.827Z,102425.39
2019-05-15T01:24:00.792Z,102423.30
2019-05-15T01:25:08.707Z,102428.62
2019-05-15T01:26:13.432Z,102420.82
2019-05-15T01:27:19.042Z,102425.34
2019-05-15T01:28:24.225Z,102423.72
2019-05-15T01:29:41.151Z,102425.12
2019-05-15T01:30:39.031Z,102419.98
2019-05-15T01:31:44.132Z,102421.88
2019-05-15T01:32:49.123Z,102420.62
2019-05-15T01:33:54.626Z,102426.03
2019-05-15T01:35:00.448Z,102418.97
2019-05-15T01:36:08.351Z,102417.23
2019-05-15T01:37:12.707Z,102427.40
2019-05-15T01:38:18.675Z,102419.14
2019-05-15T01:39:23.912Z,102420.00
2019-05-15T01:40:29.831Z,102419.14
2019-05-15T01:41:35.022Z,102416.09
2019-05-15T01:42:40.630Z,102409.45
2019-05-15T01:43:45.980Z,102414.30
2019-05-15T01:44:51.480Z,102422.72
2019-05-15T01:45:58.806Z,102422.36
2019-05-15T01:47:04.026Z,102419.31
2019-05-15T01:48:12.889Z,102418.84
2019-05-15T01:49:18.790Z,102421.10
2019-05-15T01:50:23.818Z,102418.91
2019-05-15T01:51:29.396Z,102422.53
2019-05-15T01:52:34.311Z,102417.75
2019-05-15T01:53:39.786Z,102418.33
2019-05-15T01:54:44.707Z,102411.29
2019-05-15T01:55:50.315Z,102417.63
2019-05-15T01:56:55.221Z,102421.22
2019-05-15T01:58:01.007Z,102419.99
2019-05-15T01:59:06.004Z,102420.86
2019-05-15T02:00:11.620Z,102427.95
2019-05-15T02:01:19.123Z,102420.06
2019-05-15T02:02:24.033Z,102418.27
2019-05-15T02:03:29.514Z,102417.01
2019-05-15T02:04:35.100Z,102422.25
2019-05-15T02:05:40.482Z,102413.52
2019-05-15T02:06:48.281Z,102418.73
2019-05-15T02:07:52.899Z,102417.11
2019-05-15T02:08:58.801Z,102417.97
2019-05-15T02:10:04.495Z,102418.04
2019-05-15T02:11:09.990Z,102418.44
2019-05-15T02:12:15.251Z,102415.02
2019-05-15T02:13:20.885Z,102418.14
2019-05-15T02:14:28.315Z,102415.95
2019-05-15T02:15:33.561Z,102415.95
2019-05-15T02:16:39.288Z,102419.94
2019-05-15T02:17:45.352Z,102417.74
2019-05-15T02:18:50.252Z,102421.73
2019-05-15T02:19:56.113Z,102420.86
2019-05-15T02:21:02.823Z,102421.80
2019-05-15T02:22:08.469Z,102419.64
2019-05-15T02:23:13.599Z,102420.57
2019-05-15T02:24:19.268Z,102416.19
2019-05-15T02:25:24.481Z,102418.95
2019-05-15T02:26:30.062Z,102416.36
2019-05-15T02:27:35.015Z,102421.77
2019-05-15T02:28:40.648Z,102417.39
2019-05-15T02:29:45.961Z,102422.70
2019-05-15T02:30:51.520Z,102427.14
2019-05-15T02:31:59.304Z,102421.94
2019-05-15T02:33:03.626Z,102415.83
2019-05-15T02:34:10.206Z,102424.72
2019-05-15T02:35:18.406Z,102421.30
2019-05-15T02:36:22.503Z,102419.22
2019-05-15T02:37:29.372Z,102419.75
2019-05-15T02:38:35.098Z,102431.79
2019-05-15T02:39:40.602Z,102420.37
2019-05-15T02:40:45.607Z,102418.22
2019-05-15T02:41:51.173Z,102420.94
2019-05-15T02:42:58.968Z,102421.41
2019-05-15T02:44:03.619Z,102425.02
2019-05-15T02:45:10.303Z,102422.37
2019-05-15T02:46:19.373Z,102419.78
2019-05-15T02:47:23.585Z,102421.17
2019-05-15T02:48:29.301Z,102425.72
2019-05-15T02:49:34.672Z,102427.51
2019-05-15T02:50:40.254Z,102427.61
2019-05-15T02:51:45.192Z,102425.88
2019-05-15T02:52:50.812Z,102423.30
2019-05-15T02:53:58.382Z,102421.60
2019-05-15T02:55:03.056Z,102424.72
2019-05-15T02:56:09.315Z,102423.39
2019-05-15T02:57:15.466Z,102424.31
2019-05-15T02:58:21.781Z,102420.91
2019-05-15T02:59:29.042Z,102423.16
2019-05-15T03:00:43.955Z,102415.83
2019-05-15T03:01:41.456Z,102414.13
2019-05-15T03:02:49.665Z,102412.87
2019-05-15T03:03:54.282Z,102420.44
2019-05-15T03:04:59.714Z,102419.66
2019-05-15T03:06:05.321Z,102431.60
2019-05-15T03:07:10.537Z,102421.05
2019-05-15T03:08:19.316Z,102417.17
2019-05-15T03:09:22.948Z,102418.10
2019-05-15T03:10:29.679Z,102422.48
2019-05-15T03:11:34.864Z,102419.83
2019-05-15T03:12:42.453Z,102416.87
2019-05-15T03:13:50.283Z,102421.84
2019-05-15T03:14:54.849Z,102417.50
2019-05-15T03:16:20.413Z,102413.98
2019-05-15T03:17:25.826Z,102418.03
2019-05-15T03:18:31.567Z,102419.05
2019-05-15T03:19:39.292Z,102419.14
2019-05-15T03:20:43.761Z,102419.61
2019-05-15T03:21:49.922Z,102419.21
2019-05-15T03:22:55.631Z,102418.81
2019-05-15T03:24:00.681Z,102424.05
2019-05-15T03:25:10.336Z,102422.79
2019-05-15T03:26:13.592Z,102423.81
2019-05-15T03:27:19.813Z,102426.06
2019-05-15T03:28:24.895Z,102432.33
2019-05-15T03:29:30.820Z,102432.39
2019-05-15T03:31:06.657Z,102429.34
2019-05-15T03:31:59.103Z,102424.59
2019-05-15T03:33:00.565Z,102430.36
2019-05-15T03:34:03.053Z,102426.02
2019-05-15T03:35:05.954Z,102424.29
2019-05-15T03:36:13.867Z,102422.16
2019-05-15T03:37:22.219Z,102427.96
2019-05-15T03:38:29.704Z,102424.45
2019-05-15T03:39:33.675Z,102429.81
2019-05-15T03:40:39.941Z,102429.34
2019-05-15T03:41:45.299Z,102430.27
2019-05-15T03:42:51.369Z,102433.48
2019-05-15T03:43:59.488Z,102431.70
2019-05-15T03:45:03.658Z,102428.18
2019-05-15T03:46:09.264Z,102426.39
2019-05-15T03:47:15.796Z,102432.16
2019-05-15T03:48:20.869Z,102429.51
2019-05-15T03:49:29.203Z,102435.73
2019-05-15T03:50:33.142Z,102429.11
2019-05-15T03:51:42.479Z,102428.73
2019-05-15T03:52:45.714Z,102427.88
2019-05-15T03:53:51.665Z,102430.98
2019-05-15T03:54:58.828Z,102430.59
2019-05-15T03:56:03.942Z,102424.42
2019-05-15T03:57:09.925Z,102429.72
2019-05-15T03:58:20.915Z,102430.22
2019-05-15T03:59:23.664Z,102427.17
2019-05-15T04:00:30.183Z,102438.17
2019-05-15T04:01:39.802Z,102432.01
2019-05-15T04:02:42.798Z,102431.14
2019-05-15T04:03:49.591Z,102435.12
2019-05-15T04:04:58.059Z,102436.45
2019-05-15T04:06:02.698Z,102435.64
2019-05-15T04:07:09.267Z,102431.30
2019-05-15T04:08:14.859Z,102433.09
2019-05-15T04:09:20.609Z,102432.22
2019-05-15T04:10:28.612Z,102437.13
2019-05-15T04:11:33.255Z,102437.98
2019-05-15T04:12:40.301Z,102434.02
2019-05-15T04:13:45.693Z,102432.78
2019-05-15T04:14:50.777Z,102439.31
2019-05-15T04:15:59.142Z,102434.02
2019-05-15T04:17:03.173Z,102433.95
2019-05-15T04:18:09.340Z,102433.95
2019-05-15T04:19:18.844Z,102433.95
2019-05-15T04:20:23.147Z,102437.83
2019-05-15T04:21:30.320Z,102434.72
2019-05-15T04:22:35.804Z,102435.64
2019-05-15T04:23:41.671Z,102433.39
2019-05-15T04:24:49.534Z,102428.95
2019-05-15T04:25:54.845Z,102436.35
2019-05-15T04:27:06.104Z,102437.22
2019-05-15T04:28:11.641Z,102438.48
2019-05-15T04:29:19.382Z,102436.29
2019-05-15T04:30:24.567Z,102439.34
2019-05-15T04:31:49.800Z,102433.55
2019-05-15T04:32:39.831Z,102436.59
2019-05-15T04:33:44.439Z,102432.56
2019-05-15T04:34:49.523Z,102435.67
2019-05-15T04:35:55.019Z,102434.25
2019-05-15T04:37:00.328Z,102434.66
2019-05-15T04:38:09.065Z,102443.00
2019-05-15T04:39:12.994Z,102439.03
2019-05-15T04:40:19.439Z,102432.46
2019-05-15T04:41:24.911Z,102438.07
2019-05-15T04:42:30.765Z,102442.05
2019-05-15T04:43:44.139Z,102432.77
2019-05-15T04:44:42.941Z,102433.17
2019-05-15T04:45:49.784Z,102432.30
2019-05-15T04:46:55.099Z,102432.70
2019-05-15T04:48:00.099Z,102433.17
2019-05-15T04:49:09.021Z,102435.75
2019-05-15T04:50:12.719Z,102438.77
2019-05-15T04:51:19.092Z,102432.55
2019-05-15T04:52:24.257Z,102436.46
2019-05-15T04:53:33.163Z,102436.83
2019-05-15T04:54:39.925Z,102432.79
2019-05-15T04:55:44.335Z,102430.04
2019-05-15T04:56:50.357Z,102431.30
2019-05-15T04:57:58.992Z,102433.86
2019-05-15T04:59:02.641Z,102432.47
2019-05-15T05:00:09.831Z,102427.63
2019-05-15T05:01:19.701Z,102429.26
2019-05-15T05:02:27.064Z,102427.88
2019-05-15T05:03:34.145Z,102425.98
2019-05-15T05:04:38.830Z,102422.87
2019-05-15T05:05:44.210Z,102428.97
2019-05-15T05:06:49.742Z,102422.64
2019-05-15T05:07:54.990Z,102421.68
2019-05-15T05:09:00.909Z,102426.00
2019-05-15T05:10:09.663Z,102424.20
2019-05-15T05:11:14.121Z,102425.83
2019-05-15T05:12:19.485Z,102429.25
2019-05-15T05:13:28.403Z,102425.20
2019-05-15T05:14:33.383Z,102422.09
2019-05-15T05:16:39.548Z,102422.47
2019-05-15T05:17:45.413Z,102424.25
2019-05-15T05:18:50.672Z,102419.64
2019-05-15T05:19:58.361Z,102423.59
2019-05-15T05:21:03.625Z,102419.98
2019-05-15T05:22:09.561Z,102425.19
2019-05-15T05:23:14.634Z,102427.27
2019-05-15T05:24:20.354Z,102427.45
2019-05-15T05:25:27.842Z,102418.06
2019-05-15T05:26:32.667Z,102424.02
2019-05-15T05:27:38.548Z,102416.31
2019-05-15T05:28:44.446Z,102421.86
2019-05-15T05:29:50.095Z,102426.09
2019-05-15T05:30:58.569Z,102423.77
2019-05-15T05:32:02.818Z,102426.67
2019-05-15T05:33:08.635Z,102427.35
2019-05-15T05:34:14.069Z,102426.66
2019-05-15T05:35:19.843Z,102427.82
2019-05-15T05:36:25.195Z,102431.54
2019-05-15T05:37:31.126Z,102426.13
2019-05-15T05:38:38.471Z,102428.14
2019-05-15T05:39:43.564Z,102431.99
2019-05-15T05:40:49.891Z,102427.55
2019-05-15T05:41:55.713Z,102430.48
2019-05-15T05:43:00.722Z,102430.77
2019-05-15T05:44:08.166Z,102436.10
2019-05-15T05:45:13.625Z,102435.12
2019-05-15T05:46:19.458Z,102434.66
2019-05-15T05:47:24.391Z,102433.05
2019-05-15T05:48:30.180Z,102432.66
2019-05-15T05:49:35.205Z,102429.98
2019-05-15T05:50:44.820Z,102431.27
2019-05-15T05:51:49.862Z,102426.52
2019-05-15T05:52:57.832Z,102435.36
2019-05-15T05:54:02.503Z,102424.77
2019-05-15T05:55:09.131Z,102423.89
2019-05-15T05:56:14.230Z,102423.39
2019-05-15T05:57:19.979Z,102425.06
2019-05-15T05:58:25.326Z,102420.65
2019-05-15T05:59:30.888Z,102420.66
2019-05-15T06:00:41.824Z,102414.44
2019-05-15T06:01:48.388Z,102416.20
2019-05-15T06:02:53.619Z,102420.56
2019-05-15T06:03:59.418Z,102417.48
2019-05-15T06:05:04.495Z,102421.44
2019-05-15T06:06:10.130Z,102417.37
2019-05-15T06:07:15.104Z,102413.32
2019-05-15T06:08:20.726Z,102418.62
2019-05-15T06:09:27.832Z,102416.12
2019-05-15T06:10:33.798Z,102423.70
2019-05-15T06:11:38.887Z,102421.93
2019-05-15T06:12:44.400Z,102427.05
2019-05-15T06:13:52.509Z,102419.95
2019-05-15T06:14:58.086Z,102423.26
2019-05-15T06:16:03.212Z,102423.80
2019-05-15T06:17:08.684Z,102426.99
2019-05-15T06:18:13.759Z,102420.57
2019-05-15T06:19:19.384Z,102425.12
2019-05-15T06:20:24.394Z,102428.53
2019-05-15T06:21:29.850Z,102433.30
2019-05-15T06:22:35.114Z,102426.14
2019-05-15T06:23:45.616Z,102425.64
2019-05-15T06:24:48.491Z,102428.22
2019-05-15T06:25:54.312Z,102430.98
2019-05-15T06:26:59.371Z,102429.17
2019-05-15T06:28:05.000Z,102430.16
2019-05-15T06:29:10.318Z,102427.95
2019-05-15T06:30:21.896Z,102425.86
2019-05-15T06:31:22.891Z,102427.83
2019-05-15T06:32:29.091Z,102425.92
2019-05-15T06:33:34.041Z,102421.83
2019-05-15T06:34:39.882Z,102432.89
2019-05-15T06:35:45.069Z,102427.73
2019-05-15T06:36:50.747Z,102425.83
2019-05-15T06:37:55.914Z,102427.17
2019-05-15T06:39:01.739Z,102421.83
2019-05-15T06:40:08.456Z,102422.59
2019-05-15T06:41:14.652Z,102417.24
2019-05-15T06:42:19.579Z,102424.66
2019-05-15T06:43:25.191Z,102424.53
2019-05-15T06:44:30.212Z,102430.16
2019-05-15T06:45:37.881Z,102421.63
2019-05-15T06:46:42.444Z,102427.48
2019-05-15T06:47:48.380Z,102429.05
2019-05-15T06:48:53.751Z,102427.94
2019-05-15T06:49:59.326Z,102427.94
2019-05-15T06:51:04.470Z,102427.55
2019-05-15T06:52:10.378Z,102418.38
2019-05-15T06:53:15.285Z,102423.73
2019-05-15T06:54:20.784Z,102424.30
2019-05-15T06:55:25.760Z,102420.29
2019-05-15T06:56:31.379Z,102420.03
2019-05-15T06:57:36.468Z,102421.21
2019-05-15T06:58:42.369Z,102424.10
2019-05-15T06:59:48.406Z,102420.79
2019-05-15T07:00:54.417Z,102420.66
2019-05-15T07:01:59.563Z,102427.91
2019-05-15T07:03:20.016Z,102424.98
2019-05-15T07:04:12.024Z,102433.59
2019-05-15T07:05:18.455Z,102424.55
2019-05-15T07:06:23.870Z,102435.67
2019-05-15T07:07:29.423Z,102428.82
2019-05-15T07:08:34.880Z,102429.25
2019-05-15T07:09:40.373Z,102426.53
2019-05-15T07:10:45.574Z,102422.84
2019-05-15T07:11:51.179Z,102426.58
2019-05-15T07:12:58.371Z,102432.13
2019-05-15T07:18:32.907Z,102415.58
2019-05-15T07:19:39.367Z,102418.14
2019-05-15T07:20:48.605Z,102419.68
2019-05-15T07:21:53.310Z,102413.57
2019-05-15T07:22:58.734Z,102420.24
2019-05-15T07:24:04.737Z,102426.91
2019-05-15T07:25:10.444Z,102417.22
2019-05-15T07:26:18.159Z,102417.22
2019-05-15T07:27:22.687Z,102418.91
2019-05-15T07:28:29.638Z,102415.38
2019-05-15T07:29:38.408Z,102416.23
2019-05-15T07:30:43.694Z,102409.22
2019-05-15T07:31:48.667Z,102412.83
2019-05-15T07:32:54.197Z,102418.25
2019-05-15T07:34:00.002Z,102407.80
2019-05-15T07:35:08.461Z,102407.53
2019-05-15T07:36:13.584Z,102402.66
2019-05-15T07:37:19.226Z,102408.47
2019-05-15T07:38:24.093Z,102400.86
2019-05-15T07:39:29.761Z,102400.86
2019-05-15T07:40:34.643Z,102401.72
2019-05-15T07:41:40.635Z,102403.52
2019-05-15T07:42:48.784Z,102408.86
2019-05-15T07:43:53.201Z,102404.47
2019-05-15T07:44:59.559Z,102412.56
2019-05-15T07:46:08.099Z,102402.45
2019-05-15T07:47:11.957Z,102401.12
2019-05-15T07:48:18.878Z,102400.38
2019-05-15T07:49:24.053Z,102398.78
2019-05-15T07:50:30.019Z,102405.92
2019-05-15T07:51:34.946Z,102410.01
2019-05-15T07:52:41.252Z,102400.32
2019-05-15T07:53:48.727Z,102406.98
2019-05-15T07:54:55.267Z,102410.13
2019-05-15T07:56:01.629Z,102405.18
2019-05-15T07:57:08.943Z,102396.20
2019-05-15T07:58:14.141Z,102404.59
2019-05-15T07:59:19.687Z,102403.52
2019-05-15T08:00:25.351Z,102402.10
2019-05-15T08:01:30.918Z,102404.64
2019-05-15T08:02:37.909Z,102403.70
2019-05-15T08:03:56.556Z,102396.09
2019-05-15T08:04:49.857Z,102396.86
2019-05-15T08:06:02.690Z,102394.93
2019-05-15T08:07:03.990Z,102401.12
2019-05-15T08:08:09.694Z,102404.27
2019-05-15T08:09:14.752Z,102399.91
2019-05-15T08:10:22.280Z,102398.66
2019-05-15T08:11:28.498Z,102400.95
2019-05-15T08:12:34.246Z,102402.37
2019-05-15T08:13:39.715Z,102389.63
2019-05-15T08:14:47.435Z,102399.44
2019-05-15T08:15:53.275Z,102395.99
2019-05-15T08:16:59.374Z,102390.78
2019-05-15T08:18:09.099Z,102390.01
2019-05-15T08:19:11.843Z,102390.86
2019-05-15T08:20:18.358Z,102384.67
2019-05-15T08:21:24.003Z,102387.72
2019-05-15T08:22:29.390Z,102395.73
2019-05-15T08:23:34.930Z,102390.86
2019-05-15T08:24:39.818Z,102382.86
2019-05-15T08:25:48.522Z,102387.25
2019-05-15T08:26:53.625Z,102385.44
2019-05-15T08:27:59.552Z,102389.80
2019-05-15T08:29:04.652Z,102391.64
2019-05-15T08:30:12.179Z,102389.45
2019-05-15T08:31:18.793Z,102385.17
2019-05-15T08:32:24.443Z,102385.66
2019-05-15T08:33:29.513Z,102385.66
2019-05-15T08:34:34.970Z,102389.66
2019-05-15T08:35:44.451Z,102378.59
2019-05-15T08:36:48.240Z,102385.27
2019-05-15T08:37:53.423Z,102378.13
2019-05-15T08:38:59.202Z,102375.34
2019-05-15T08:40:04.868Z,102378.86
2019-05-15T08:41:11.530Z,102374.86
2019-05-15T08:42:18.899Z,102371.25
2019-05-15T08:43:24.036Z,102370.19
2019-05-15T08:44:29.585Z,102367.78
2019-05-15T08:45:35.298Z,102365.97
2019-05-15T08:46:40.695Z,102362.36
2019-05-15T08:47:48.966Z,102371.98
2019-05-15T08:48:52.905Z,102361.80
2019-05-15T08:49:58.512Z,102357.70
2019-05-15T08:51:03.447Z,102362.45
2019-05-15T08:52:10.333Z,102349.97
2019-05-15T08:53:15.516Z,102348.04
2019-05-15T08:54:21.193Z,102353.20
2019-05-15T08:55:28.052Z,102349.94
2019-05-15T08:56:33.351Z,102343.14
2019-05-15T08:57:38.564Z,102349.25
2019-05-15T08:58:44.344Z,102347.44
2019-05-15T08:59:49.263Z,102343.79
2019-05-15T09:00:54.774Z,102345.98
2019-05-15T09:01:59.768Z,102341.89
2019-05-15T09:03:05.533Z,102347.22
2019-05-15T09:04:10.471Z,102332.91
2019-05-15T09:05:18.646Z,102343.95
2019-05-15T09:06:24.256Z,102345.20
2019-05-15T09:07:30.187Z,102339.39
2019-05-15T09:08:35.215Z,102340.34
2019-05-15T09:09:40.782Z,102346.62
2019-05-15T09:10:46.302Z,102343.58
2019-05-15T09:11:51.853Z,102337.50
2019-05-15T09:12:58.686Z,102341.98
2019-05-15T09:14:04.279Z,102341.13
2019-05-15T09:15:10.388Z,102342.96
2019-05-15T09:16:18.353Z,102342.96
2019-05-15T09:17:22.538Z,102328.29
2019-05-15T09:18:28.438Z,102335.78
2019-05-15T09:19:33.638Z,102329.50
2019-05-15T09:20:39.713Z,102325.41
2019-05-15T09:21:44.958Z,102327.39
2019-05-15T09:22:50.830Z,102323.73
2019-05-15T09:23:58.694Z,102323.52
2019-05-15T09:25:03.640Z,102322.95
2019-05-15T09:26:09.399Z,102323.09
2019-05-15T09:27:15.315Z,102313.53
2019-05-15T09:28:20.245Z,102316.97
2019-05-15T09:29:25.733Z,102319.16
2019-05-15T09:30:30.739Z,102319.04
2019-05-15T09:31:36.229Z,102326.09
2019-05-15T09:32:41.220Z,102321.14
2019-05-15T09:33:49.324Z,102319.42
2019-05-15T09:34:55.554Z,102316.38
2019-05-15T09:36:01.363Z,102311.42
2019-05-15T09:37:08.443Z,102309.48
2019-05-15T09:38:13.909Z,102312.53
2019-05-15T09:39:19.528Z,102307.93
2019-05-15T09:40:41.737Z,102302.97
2019-05-15T09:41:31.817Z,102302.02
2019-05-15T09:42:38.866Z,102299.70
2019-05-15T09:43:44.206Z,102304.09
2019-05-15T09:44:50.026Z,102302.38
2019-05-15T09:45:55.034Z,102304.69
2019-05-15T09:47:00.937Z,102303.36
2019-05-15T09:48:09.494Z,102301.55
2019-05-15T09:49:13.272Z,102305.42
2019-05-15T09:50:19.522Z,102303.14
2019-05-15T09:51:25.069Z,102306.54
2019-05-15T09:52:30.288Z,102311.66
2019-05-15T09:53:39.084Z,102296.62
2019-05-15T09:54:43.417Z,102306.32
2019-05-15T09:55:49.790Z,102298.31
2019-05-15T09:56:55.546Z,102298.69
2019-05-15T09:58:01.309Z,102299.08
2019-05-15T09:59:08.851Z,102298.60
2019-05-15T10:00:14.823Z,102294.59
2019-05-15T10:01:20.007Z,102292.19
2019-05-15T10:02:28.248Z,102296.53
2019-05-15T10:03:32.309Z,102299.11
2019-05-15T10:04:39.038Z,102286.63
2019-05-15T10:05:44.996Z,102295.97
2019-05-15T10:06:50.711Z,102293.68
2019-05-15T10:07:55.619Z,102293.55
2019-05-15T10:09:01.118Z,102288.47
2019-05-15T10:10:08.733Z,102289.96
2019-05-15T10:11:14.155Z,102284.02
2019-05-15T10:12:19.136Z,102281.63
2019-05-15T10:13:24.594Z,102281.50
2019-05-15T10:14:29.972Z,102282.75
2019-05-15T10:15:35.512Z,102284.94
2019-05-15T10:16:41.161Z,102276.07
2019-05-15T10:17:50.899Z,102272.79
2019-05-15T10:18:53.963Z,102279.38
2019-05-15T10:19:59.414Z,102266.88
2019-05-15T10:21:04.481Z,102266.75
2019-05-15T10:22:10.107Z,102263.85
2019-05-15T10:23:19.164Z,102273.45
2019-05-15T10:24:23.198Z,102263.15
2019-05-15T10:25:28.247Z,102260.73
2019-05-15T10:26:33.812Z,102265.50
2019-05-15T10:27:39.789Z,102261.36
2019-05-15T10:28:45.529Z,102256.87
2019-05-15T10:29:50.779Z,102262.83
2019-05-15T10:30:56.306Z,102261.84
2019-05-15T10:32:01.643Z,102255.16
2019-05-15T10:33:08.737Z,102253.83
2019-05-15T10:34:13.763Z,102260.25
2019-05-15T10:35:28.283Z,102264.16
2019-05-15T10:36:28.028Z,102266.93
2019-05-15T10:37:34.065Z,102268.74
2019-05-15T10:38:39.377Z,102269.12
2019-05-15T10:39:45.199Z,102263.78
2019-05-15T10:41:03.703Z,102261.48
2019-05-15T10:41:57.785Z,102260.63
2019-05-15T10:43:02.872Z,102258.81
2019-05-15T10:44:09.320Z,102259.67
2019-05-15T10:45:15.042Z,102253.34
2019-05-15T10:46:20.889Z,102251.53
2019-05-15T10:47:25.827Z,102247.52
2019-05-15T10:48:31.830Z,102249.23
2019-05-15T10:49:39.012Z,102236.36
2019-05-15T10:50:44.421Z,102250.45
2019-05-15T10:51:49.786Z,102248.06
2019-05-15T10:52:55.399Z,102253.98
2019-05-15T10:54:00.875Z,102241.09
2019-05-15T10:55:09.242Z,102252.16
2019-05-15T10:56:14.109Z,102251.45
2019-05-15T10:57:22.883Z,102240.16
2019-05-15T10:58:28.571Z,102240.54
2019-05-15T10:59:34.336Z,102245.27
2019-05-15T11:00:39.401Z,102245.66
2019-05-15T11:01:44.945Z,102243.73
2019-05-15T11:02:50.199Z,102253.37
2019-05-15T11:03:55.667Z,102241.59
2019-05-15T11:05:00.768Z,102237.59
2019-05-15T11:06:08.870Z,102245.38
2019-05-15T11:07:13.025Z,102245.14
2019-05-15T11:08:19.109Z,102235.94
2019-05-15T11:09:24.180Z,102230.45
2019-05-15T11:10:29.907Z,102240.09
2019-05-15T11:11:35.089Z,102230.98
2019-05-15T11:12:40.818Z,102225.02
2019-05-15T11:13:45.734Z,102236.95
2019-05-15T11:14:51.835Z,102235.14
2019-05-15T11:15:57.151Z,102236.95
2019-05-15T11:17:02.717Z,102233.90
2019-05-15T11:18:09.252Z,102228.17
2019-05-15T11:19:15.278Z,102225.02
2019-05-15T11:20:20.525Z,102228.55
2019-05-15T11:21:26.170Z,102226.26
2019-05-15T11:22:31.310Z,102230.61
2019-05-15T11:23:39.536Z,102224.69
2019-05-15T11:24:43.582Z,102220.30
2019-05-15T11:25:49.467Z,102221.27
2019-05-15T11:26:56.241Z,102223.35
2019-05-15T11:28:02.012Z,102217.02
2019-05-15T11:29:09.604Z,102226.17
2019-05-15T11:30:14.925Z,102220.20
2019-05-15T11:31:20.380Z,102224.59
2019-05-15T11:32:25.978Z,102207.70
2019-05-15T11:33:30.915Z,102223.73
2019-05-15T11:34:38.287Z,102215.23
2019-05-15T11:35:56.801Z,102213.39
2019-05-15T11:36:50.622Z,102215.59
2019-05-15T11:37:57.318Z,102218.26
2019-05-15T11:39:02.739Z,102203.20
2019-05-15T11:40:10.032Z,102206.47
2019-05-15T11:41:18.424Z,102214.00
2019-05-15T11:42:22.133Z,102201.49
2019-05-15T11:43:29.155Z,102196.52
2019-05-15T11:44:34.896Z,102190.56
2019-05-15T11:45:40.531Z,102195.80
2019-05-15T11:46:45.835Z,102189.71
2019-05-15T11:47:51.818Z,102193.86
2019-05-15T11:48:58.805Z,102198.01
2019-05-15T11:50:04.268Z,102189.50
2019-05-15T11:51:09.932Z,102188.78
2019-05-15T11:52:18.602Z,102183.78
2019-05-15T11:53:22.463Z,102175.76
2019-05-15T11:54:28.420Z,102180.52
2019-05-15T11:55:34.070Z,102184.91
2019-05-15T11:56:39.539Z,102183.58
2019-05-15T11:57:47.516Z,102179.56
2019-05-15T11:58:51.764Z,102165.20
2019-05-15T11:59:59.613Z,102173.97
2019-05-15T12:01:04.087Z,102173.36
2019-05-15T12:02:09.008Z,102168.38
2019-05-15T12:03:14.743Z,102172.63
2019-05-15T12:04:30.435Z,102169.34
2019-05-15T12:05:28.797Z,102176.30
2019-05-15T12:06:34.111Z,102177.98
2019-05-15T12:07:39.725Z,102177.98
2019-05-15T12:08:44.791Z,102164.12
2019-05-15T12:09:50.479Z,102167.17
2019-05-15T12:10:58.834Z,102169.70
2019-05-15T12:12:02.977Z,102157.19
2019-05-15T12:13:09.793Z,102152.31
2019-05-15T12:14:18.613Z,102159.76
2019-05-15T12:15:22.396Z,102157.42
2019-05-15T12:16:28.979Z,102155.02
2019-05-15T12:17:34.353Z,102156.36
2019-05-15T12:18:39.961Z,102173.50
2019-05-15T12:19:54.936Z,102168.02
2019-05-15T12:20:52.140Z,102161.33
2019-05-15T12:21:59.781Z,102161.09
2019-05-15T12:23:04.646Z,102152.58
2019-05-15T12:24:09.678Z,102143.59
2019-05-15T12:25:15.596Z,102140.30
2019-05-15T12:26:20.790Z,102148.08
2019-05-15T12:27:28.272Z,102153.28
2019-05-15T12:28:33.617Z,102153.55
2019-05-15T12:29:39.985Z,102148.20
2019-05-15T12:30:45.236Z,102144.19
2019-05-15T12:31:50.946Z,102153.07
2019-05-15T12:32:55.875Z,102153.41
2019-05-15T12:34:01.411Z,102144.91
2019-05-15T12:35:06.722Z,102156.57
2019-05-15T12:36:12.336Z,102145.15
2019-05-15T12:37:19.035Z,102143.44
2019-05-15T12:38:24.507Z,102144.77